sensor_id;sensor_type;location;lat;lon;timestamp;pressure;altitude;pressure_sealevel;temperature;humidity
20043;BME280;10182;52.896;6.496;2022-09-09T00:00:53;100601.66;;;13.75;100.00
20043;BME280;10182;52.896;6.496;2022-09-09T00:06:03;100589.41;;;13.72;100.00
20043;BME280;10182;52.896;6.496;2022-09-09T00:11:13;100595.31;;;13.63;100.00
20043;BME280;10182;52.896;6.496;2022-09-09T00:16:20;100588.47;;;13.59;100.00
20043;BME280;10182;52.896;6.496;2022-09-09T00:21:30;100582.69;;;13.52;100.00
20043;BME280;10182;52.896;6.496;2022-09-09T00:26:37;100574.13;;;13.47;100.00
20043;BME280;10182;52.896;6.496;2022-09-09T00:31:39;100581.59;;;13.40;100.00
20043;BME280;10182;52.896;6.496;2022-09-09T00:36:43;100573.72;;;13.39;100.00
20043;BME280;10182;52.896;6.496;2022-09-09T00:41:52;100569.44;;;13.36;100.00
20043;BME280;10182;52.896;6.496;2022-09-09T00:47:12;100570.19;;;13.38;100.00
20043;BME280;10182;52.896;6.496;2022-09-09T00:52:32;100558.59;;;13.39;100.00
20043;BME280;10182;52.896;6.496;2022-09-09T00:57:38;100562.31;;;13.36;100.00
20043;BME280;10182;52.896;6.496;2022-09-09T01:02:52;100568.63;;;13.34;100.00
20043;BME280;10182;52.896;6.496;2022-09-09T01:07:57;100565.66;;;13.40;100.00
20043;BME280;10182;52.896;6.496;2022-09-09T01:13:02;100563.19;;;13.37;100.00
20043;BME280;10182;52.896;6.496;2022-09-09T01:18:09;100570.28;;;13.36;100.00
20043;BME280;10182;52.896;6.496;2022-09-09T01:23:30;100578.00;;;13.41;100.00
20043;BME280;10182;52.896;6.496;2022-09-09T01:28:37;100568.31;;;13.54;100.00
20043;BME280;10182;52.896;6.496;2022-09-09T01:33:40;100572.41;;;13.60;100.00
20043;BME280;10182;52.896;6.496;2022-09-09T01:38:41;100563.28;;;13.64;100.00
20043;BME280;10182;52.896;6.496;2022-09-09T01:43:44;100568.88;;;13.74;100.00
20043;BME280;10182;52.896;6.496;2022-09-09T01:48:46;100568.69;;;13.77;100.00
20043;BME280;10182;52.896;6.496;2022-09-09T01:53:48;100563.94;;;13.82;100.00
20043;BME280;10182;52.896;6.496;2022-09-09T01:59:02;100570.47;;;13.91;100.00
20043;BME280;10182;52.896;6.496;2022-09-09T02:04:13;100564.00;;;13.95;100.00
20043;BME280;10182;52.896;6.496;2022-09-09T02:09:19;100572.97;;;13.94;100.00
20043;BME280;10182;52.896;6.496;2022-09-09T02:14:27;100574.47;;;13.98;100.00
20043;BME280;10182;52.896;6.496;2022-09-09T02:19:34;100571.72;;;14.00;100.00
20043;BME280;10182;52.896;6.496;2022-09-09T02:24:39;100571.81;;;13.98;100.00
20043;BME280;10182;52.896;6.496;2022-09-09T02:29:43;100568.63;;;14.06;100.00
20043;BME280;10182;52.896;6.496;2022-09-09T02:34:48;100563.31;;;14.06;100.00
20043;BME280;10182;52.896;6.496;2022-09-09T02:39:50;100567.69;;;14.07;100.00
20043;BME280;10182;52.896;6.496;2022-09-09T02:44:53;100568.38;;;14.11;100.00
20043;BME280;10182;52.896;6.496;2022-09-09T02:50:02;100573.13;;;14.05;100.00
20043;BME280;10182;52.896;6.496;2022-09-09T02:55:10;100571.59;;;14.01;100.00
20043;BME280;10182;52.896;6.496;2022-09-09T03:00:15;100568.84;;;14.03;100.00
20043;BME280;10182;52.896;6.496;2022-09-09T03:05:17;100568.84;;;14.03;100.00
20043;BME280;10182;52.896;6.496;2022-09-09T03:10:19;100563.66;;;14.14;100.00
20043;BME280;10182;52.896;6.496;2022-09-09T03:15:22;100552.53;;;14.22;100.00
20043;BME280;10182;52.896;6.496;2022-09-09T03:20:24;100557.19;;;14.18;100.00
20043;BME280;10182;52.896;6.496;2022-09-09T03:25:26;100551.50;;;14.10;100.00
20043;BME280;10182;52.896;6.496;2022-09-09T03:30:30;100550.94;;;14.05;100.00
20043;BME280;10182;52.896;6.496;2022-09-09T03:35:32;100552.56;;;14.08;100.00
20043;BME280;10182;52.896;6.496;2022-09-09T03:40:33;100557.03;;;14.07;100.00
20043;BME280;10182;52.896;6.496;2022-09-09T03:45:36;100560.53;;;14.08;100.00
20043;BME280;10182;52.896;6.496;2022-09-09T03:50:38;100558.09;;;14.04;100.00
20043;BME280;10182;52.896;6.496;2022-09-09T03:55:43;100559.59;;;14.09;100.00
20043;BME280;10182;52.896;6.496;2022-09-09T04:00:54;100565.75;;;14.09;100.00
20043;BME280;10182;52.896;6.496;2022-09-09T04:05:57;100559.13;;;14.02;100.00
20043;BME280;10182;52.896;6.496;2022-09-09T04:11:00;100567.69;;;13.93;100.00
20043;BME280;10182;52.896;6.496;2022-09-09T04:16:04;100569.41;;;13.94;100.00
20043;BME280;10182;52.896;6.496;2022-09-09T04:21:06;100561.34;;;13.95;100.00
20043;BME280;10182;52.896;6.496;2022-09-09T04:26:08;100566.28;;;14.01;100.00
20043;BME280;10182;52.896;6.496;2022-09-09T04:31:15;100560.28;;;13.98;100.00
20043;BME280;10182;52.896;6.496;2022-09-09T04:36:18;100555.44;;;14.04;100.00
20043;BME280;10182;52.896;6.496;2022-09-09T04:41:20;100560.28;;;13.98;100.00
20043;BME280;10182;52.896;6.496;2022-09-09T04:46:23;100565.50;;;13.99;100.00
20043;BME280;10182;52.896;6.496;2022-09-09T04:51:25;100563.31;;;14.06;100.00
20043;BME280;10182;52.896;6.496;2022-09-09T04:56:27;100561.44;;;13.94;100.00
20043;BME280;10182;52.896;6.496;2022-09-09T05:01:30;100563.25;;;13.93;100.00
20043;BME280;10182;52.896;6.496;2022-09-09T05:06:32;100566.19;;;13.88;100.00
20043;BME280;10182;52.896;6.496;2022-09-09T05:11:34;100568.78;;;13.90;100.00
20043;BME280;10182;52.896;6.496;2022-09-09T05:16:38;100565.72;;;13.82;100.00
20043;BME280;10182;52.896;6.496;2022-09-09T05:21:40;100567.75;;;13.78;100.00
20043;BME280;10182;52.896;6.496;2022-09-09T05:26:41;100564.78;;;13.83;100.00
20043;BME280;10182;52.896;6.496;2022-09-09T05:31:45;100565.53;;;13.85;100.00
20043;BME280;10182;52.896;6.496;2022-09-09T05:36:47;100572.28;;;13.76;100.00
20043;BME280;10182;52.896;6.496;2022-09-09T05:41:49;100578.38;;;13.78;100.00
20043;BME280;10182;52.896;6.496;2022-09-09T05:46:52;100576.78;;;13.76;100.00
20043;BME280;10182;52.896;6.496;2022-09-09T05:51:54;100573.81;;;13.80;100.00
20043;BME280;10182;52.896;6.496;2022-09-09T05:56:56;100562.78;;;13.86;100.00
20043;BME280;10182;52.896;6.496;2022-09-09T06:01:59;100579.50;;;13.88;100.00
20043;BME280;10182;52.896;6.496;2022-09-09T06:07:01;100574.19;;;13.88;100.00
20043;BME280;10182;52.896;6.496;2022-09-09T06:12:03;100567.91;;;13.90;100.00
20043;BME280;10182;52.896;6.496;2022-09-09T06:17:06;100571.63;;;13.87;100.00
20043;BME280;10182;52.896;6.496;2022-09-09T06:22:08;100567.31;;;13.99;100.00
20043;BME280;10182;52.896;6.496;2022-09-09T06:27:12;100569.59;;;14.05;100.00
20043;BME280;10182;52.896;6.496;2022-09-09T06:32:16;100572.81;;;14.10;100.00
20043;BME280;10182;52.896;6.496;2022-09-09T06:37:17;100572.81;;;14.10;100.00
20043;BME280;10182;52.896;6.496;2022-09-09T06:42:19;100571.03;;;14.11;100.00
20043;BME280;10182;52.896;6.496;2022-09-09T06:47:22;100573.28;;;14.17;100.00
20043;BME280;10182;52.896;6.496;2022-09-09T06:52:24;100583.25;;;14.28;100.00
20043;BME280;10182;52.896;6.496;2022-09-09T06:57:26;100569.72;;;14.31;100.00
20043;BME280;10182;52.896;6.496;2022-09-09T07:02:29;100579.56;;;14.43;100.00
20043;BME280;10182;52.896;6.496;2022-09-09T07:07:31;100572.47;;;14.56;100.00
20043;BME280;10182;52.896;6.496;2022-09-09T07:12:32;100566.09;;;14.59;100.00
20043;BME280;10182;52.896;6.496;2022-09-09T07:17:35;100562.88;;;14.81;100.00
20043;BME280;10182;52.896;6.496;2022-09-09T07:22:37;100559.28;;;14.95;100.00
20043;BME280;10182;52.896;6.496;2022-09-09T07:27:39;100563.38;;;15.14;100.00
20043;BME280;10182;52.896;6.496;2022-09-09T07:32:42;100559.63;;;15.29;100.00
20043;BME280;10182;52.896;6.496;2022-09-09T07:37:44;100558.34;;;15.48;100.00
20043;BME280;10182;52.896;6.496;2022-09-09T07:42:46;100550.78;;;15.54;100.00
20043;BME280;10182;52.896;6.496;2022-09-09T07:47:50;100560.81;;;15.64;100.00
20043;BME280;10182;52.896;6.496;2022-09-09T07:52:53;100564.84;;;15.82;100.00
20043;BME280;10182;52.896;6.496;2022-09-09T07:57:55;100570.47;;;16.03;100.00
20043;BME280;10182;52.896;6.496;2022-09-09T08:02:58;100573.16;;;16.28;100.00
20043;BME280;10182;52.896;6.496;2022-09-09T08:08:02;100567.16;;;16.37;100.00
20043;BME280;10182;52.896;6.496;2022-09-09T08:13:04;100576.41;;;16.44;100.00
20043;BME280;10182;52.896;6.496;2022-09-09T08:18:07;100586.91;;;16.47;100.00
20043;BME280;10182;52.896;6.496;2022-09-09T08:23:09;100583.66;;;16.31;100.00
20043;BME280;10182;52.896;6.496;2022-09-09T09:12:15;100594.88;;;17.31;96.29
20043;BME280;10182;52.896;6.496;2022-09-09T09:17:18;100598.56;;;17.41;97.39
20043;BME280;10182;52.896;6.496;2022-09-09T09:22:22;100604.88;;;17.40;97.37
20043;BME280;10182;52.896;6.496;2022-09-09T09:27:33;100593.91;;;17.32;96.04
20043;BME280;10182;52.896;6.496;2022-09-09T09:32:36;100600.22;;;17.42;96.67
20043;BME280;10182;52.896;6.496;2022-09-09T09:37:41;100606.72;;;17.63;94.03
20043;BME280;10182;52.896;6.496;2022-09-09T09:42:54;100604.28;;;17.59;95.03
20043;BME280;10182;52.896;6.496;2022-09-09T09:48:00;100609.28;;;17.64;93.52
20043;BME280;10182;52.896;6.496;2022-09-09T09:53:04;100623.03;;;17.48;93.85
20043;BME280;10182;52.896;6.496;2022-09-09T09:58:15;100605.59;;;17.42;92.72
20043;BME280;10182;52.896;6.496;2022-09-09T10:03:24;100610.41;;;17.96;91.82
20043;BME280;10182;52.896;6.496;2022-09-09T10:08:27;100613.81;;;18.09;88.92
20043;BME280;10182;52.896;6.496;2022-09-09T10:13:36;100616.56;;;18.30;88.72
20043;BME280;10182;52.896;6.496;2022-09-09T10:18:47;100620.03;;;18.53;86.79
20043;BME280;10182;52.896;6.496;2022-09-09T10:24:07;100620.81;;;18.33;84.40
20043;BME280;10182;52.896;6.496;2022-09-09T10:29:25;100621.56;;;18.35;85.32
20043;BME280;10182;52.896;6.496;2022-09-09T10:34:50;100622.56;;;18.11;85.50
20043;BME280;10182;52.896;6.496;2022-09-09T10:40:00;100619.13;;;18.43;85.64
20043;BME280;10182;52.896;6.496;2022-09-09T10:45:15;100614.16;;;18.71;84.34
20043;BME280;10182;52.896;6.496;2022-09-09T10:50:40;100600.75;;;19.03;81.76
20043;BME280;10182;52.896;6.496;2022-09-09T10:55:44;100606.91;;;18.83;80.72
20043;BME280;10182;52.896;6.496;2022-09-09T11:00:52;100618.16;;;18.76;82.97
20043;BME280;10182;52.896;6.496;2022-09-09T11:05:59;100613.56;;;18.67;82.20
20043;BME280;10182;52.896;6.496;2022-09-09T11:11:08;100615.34;;;18.46;82.47
20043;BME280;10182;52.896;6.496;2022-09-09T11:16:22;100620.00;;;18.32;84.37
20043;BME280;10182;52.896;6.496;2022-09-09T11:21:29;100616.94;;;18.25;85.07
20043;BME280;10182;52.896;6.496;2022-09-09T11:26:35;100626.06;;;18.46;84.27
20043;BME280;10182;52.896;6.496;2022-09-09T11:31:56;100619.88;;;18.34;81.80
20043;BME280;10182;52.896;6.496;2022-09-09T11:37:17;100629.25;;;18.28;83.02
20043;BME280;10182;52.896;6.496;2022-09-09T11:42:24;100613.16;;;18.28;83.73
20043;BME280;10182;52.896;6.496;2022-09-09T11:47:29;100615.41;;;18.12;84.19
20043;BME280;10182;52.896;6.496;2022-09-09T11:52:37;100619.88;;;18.11;84.49
20043;BME280;10182;52.896;6.496;2022-09-09T11:57:39;100617.06;;;18.35;85.18
20043;BME280;10182;52.896;6.496;2022-09-09T12:02:49;100616.81;;;18.71;83.52
20043;BME280;10182;52.896;6.496;2022-09-09T12:07:54;100614.31;;;19.02;81.46
20043;BME280;10182;52.896;6.496;2022-09-09T12:13:08;100613.56;;;19.00;79.57
20043;BME280;10182;52.896;6.496;2022-09-09T12:18:14;100603.69;;;19.21;80.23
20043;BME280;10182;52.896;6.496;2022-09-09T12:23:25;100595.69;;;19.52;77.42
20043;BME280;10182;52.896;6.496;2022-09-09T12:28:41;100586.72;;;19.42;75.68
20043;BME280;10182;52.896;6.496;2022-09-09T12:33:46;100590.75;;;19.26;75.98
20043;BME280;10182;52.896;6.496;2022-09-09T12:38:48;100578.50;;;19.13;79.13
20043;BME280;10182;52.896;6.496;2022-09-09T12:44:03;100584.44;;;19.68;78.47
20043;BME280;10182;52.896;6.496;2022-09-09T12:49:24;100565.28;;;20.14;74.88
20043;BME280;10182;52.896;6.496;2022-09-09T12:54:27;100577.06;;;19.60;74.25
20043;BME280;10182;52.896;6.496;2022-09-09T12:59:35;100571.38;;;19.54;77.71
20043;BME280;10182;52.896;6.496;2022-09-09T13:04:39;100569.66;;;19.74;76.83
20043;BME280;10182;52.896;6.496;2022-09-09T13:09:41;100567.03;;;19.84;74.93
20043;BME280;10182;52.896;6.496;2022-09-09T13:14:44;100560.19;;;20.30;75.50
20043;BME280;10182;52.896;6.496;2022-09-09T13:19:50;100565.00;;;20.26;72.66
20043;BME280;10182;52.896;6.496;2022-09-09T13:25:00;100558.69;;;19.97;73.79
20043;BME280;10182;52.896;6.496;2022-09-09T13:30:21;100564.63;;;19.59;73.67
20043;BME280;10182;52.896;6.496;2022-09-09T13:35:25;100570.44;;;19.65;72.36
20043;BME280;10182;52.896;6.496;2022-09-09T13:40:27;100563.78;;;19.59;73.89
20043;BME280;10182;52.896;6.496;2022-09-09T13:45:30;100559.97;;;19.31;74.07
20043;BME280;10182;52.896;6.496;2022-09-09T13:50:36;100595.69;;;18.89;79.50
20043;BME280;10182;52.896;6.496;2022-09-09T13:55:37;100588.09;;;17.72;89.00
20043;BME280;10182;52.896;6.496;2022-09-09T14:00:39;100576.53;;;17.72;96.20
20043;BME280;10182;52.896;6.496;2022-09-09T14:05:43;100576.78;;;18.14;95.91
20043;BME280;10182;52.896;6.496;2022-09-09T14:10:45;100571.06;;;18.84;90.81
20043;BME280;10182;52.896;6.496;2022-09-09T14:15:48;100568.25;;;18.85;87.53
20043;BME280;10182;52.896;6.496;2022-09-09T14:20:51;100562.53;;;19.11;88.19
20043;BME280;10182;52.896;6.496;2022-09-09T14:25:53;100562.38;;;19.34;84.99
20043;BME280;10182;52.896;6.496;2022-09-09T14:30:58;100560.00;;;19.40;84.54
20043;BME280;10182;52.896;6.496;2022-09-09T14:36:03;100552.75;;;19.31;83.70
20043;BME280;10182;52.896;6.496;2022-09-09T14:41:05;100554.22;;;19.14;82.30
20043;BME280;10182;52.896;6.496;2022-09-09T14:46:08;100560.91;;;18.99;80.29
20043;BME280;10182;52.896;6.496;2022-09-09T14:51:13;100560.41;;;19.15;80.44
20043;BME280;10182;52.896;6.496;2022-09-09T14:56:17;100561.69;;;18.89;80.79
20043;BME280;10182;52.896;6.496;2022-09-09T15:01:19;100559.75;;;19.01;81.98
20043;BME280;10182;52.896;6.496;2022-09-09T15:06:25;100558.50;;;19.05;80.20
20043;BME280;10182;52.896;6.496;2022-09-09T15:11:28;100556.78;;;18.94;82.09
20043;BME280;10182;52.896;6.496;2022-09-09T15:16:32;100552.31;;;19.05;81.25
20043;BME280;10182;52.896;6.496;2022-09-09T15:21:36;100562.97;;;18.95;79.15
20043;BME280;10182;52.896;6.496;2022-09-09T15:26:38;100549.72;;;18.82;80.85
20043;BME280;10182;52.896;6.496;2022-09-09T15:31:39;100552.50;;;18.59;82.80
20043;BME280;10182;52.896;6.496;2022-09-09T15:36:44;100551.69;;;18.48;82.67
20043;BME280;10182;52.896;6.496;2022-09-09T15:41:48;100552.97;;;18.32;81.85
20043;BME280;10182;52.896;6.496;2022-09-09T15:46:51;100550.19;;;18.22;82.75
20043;BME280;10182;52.896;6.496;2022-09-09T15:51:56;100553.47;;;18.26;84.16
20043;BME280;10182;52.896;6.496;2022-09-09T15:57:01;100553.75;;;17.77;86.99
20043;BME280;10182;52.896;6.496;2022-09-09T16:02:03;100557.44;;;17.54;90.98
20043;BME280;10182;52.896;6.496;2022-09-09T16:07:06;100556.06;;;17.37;92.52
20043;BME280;10182;52.896;6.496;2022-09-09T16:12:08;100550.91;;;17.11;94.74
20043;BME280;10182;52.896;6.496;2022-09-09T16:17:12;100554.00;;;17.29;94.21
20043;BME280;10182;52.896;6.496;2022-09-09T16:22:15;100551.09;;;17.43;94.13
20043;BME280;10182;52.896;6.496;2022-09-09T16:27:18;100551.81;;;17.46;94.73
20043;BME280;10182;52.896;6.496;2022-09-09T16:32:19;100553.63;;;17.45;93.30
20043;BME280;10182;52.896;6.496;2022-09-09T16:37:23;100551.44;;;17.50;93.83
20043;BME280;10182;52.896;6.496;2022-09-09T16:42:25;100557.19;;;17.46;93.72
20043;BME280;10182;52.896;6.496;2022-09-09T16:47:27;100557.31;;;17.55;93.69
20043;BME280;10182;52.896;6.496;2022-09-09T16:52:31;100558.03;;;17.57;93.43
20043;BME280;10182;52.896;6.496;2022-09-09T16:57:32;100562.53;;;17.57;93.04
20043;BME280;10182;52.896;6.496;2022-09-09T17:02:34;100564.97;;;17.60;93.09
20043;BME280;10182;52.896;6.496;2022-09-09T17:07:37;100574.84;;;17.59;92.73
20043;BME280;10182;52.896;6.496;2022-09-09T17:12:39;100579.44;;;17.57;92.84
20043;BME280;10182;52.896;6.496;2022-09-09T17:17:41;100583.34;;;17.53;92.81
20043;BME280;10182;52.896;6.496;2022-09-09T17:22:46;100591.63;;;17.50;92.81
20043;BME280;10182;52.896;6.496;2022-09-09T17:27:49;100595.63;;;17.45;93.06
20043;BME280;10182;52.896;6.496;2022-09-09T17:32:51;100596.72;;;17.42;93.23
20043;BME280;10182;52.896;6.496;2022-09-09T17:37:54;100597.44;;;17.33;93.52
20043;BME280;10182;52.896;6.496;2022-09-09T17:42:56;100601.31;;;17.29;95.03
20043;BME280;10182;52.896;6.496;2022-09-09T17:47:58;100611.06;;;17.30;94.92
20043;BME280;10182;52.896;6.496;2022-09-09T17:53:01;100606.88;;;17.14;96.49
20043;BME280;10182;52.896;6.496;2022-09-09T17:58:03;100610.22;;;16.94;98.01
20043;BME280;10182;52.896;6.496;2022-09-09T18:03:05;100603.44;;;16.77;99.52
20043;BME280;10182;52.896;6.496;2022-09-09T18:08:08;100601.09;;;16.72;100.00
20043;BME280;10182;52.896;6.496;2022-09-09T18:13:09;100616.88;;;16.64;100.00
20043;BME280;10182;52.896;6.496;2022-09-09T18:18:11;100617.53;;;16.54;100.00
20043;BME280;10182;52.896;6.496;2022-09-09T18:23:14;100616.91;;;16.51;100.00
20043;BME280;10182;52.896;6.496;2022-09-09T18:28:16;100624.63;;;16.42;100.00
20043;BME280;10182;52.896;6.496;2022-09-09T18:33:20;100624.41;;;16.46;100.00
20043;BME280;10182;52.896;6.496;2022-09-09T18:43:33;100648.41;;;16.34;100.00
20043;BME280;10182;52.896;6.496;2022-09-09T18:48:35;100648.97;;;16.27;100.00
20043;BME280;10182;52.896;6.496;2022-09-09T18:53:37;100648.63;;;16.31;100.00
20043;BME280;10182;52.896;6.496;2022-09-09T18:58:42;100649.81;;;16.27;100.00
20043;BME280;10182;52.896;6.496;2022-09-09T19:03:43;100654.84;;;16.19;100.00
20043;BME280;10182;52.896;6.496;2022-09-09T19:08:46;100654.31;;;16.14;100.00
20043;BME280;10182;52.896;6.496;2022-09-09T19:13:51;100653.38;;;16.15;100.00
20043;BME280;10182;52.896;6.496;2022-09-09T19:18:53;100662.03;;;16.18;100.00
20043;BME280;10182;52.896;6.496;2022-09-09T19:23:57;100658.72;;;16.15;100.00
20043;BME280;10182;52.896;6.496;2022-09-09T19:29:01;100663.41;;;16.11;100.00
20043;BME280;10182;52.896;6.496;2022-09-09T19:34:03;100662.16;;;16.04;100.00
20043;BME280;10182;52.896;6.496;2022-09-09T19:39:06;100666.66;;;16.03;100.00
20043;BME280;10182;52.896;6.496;2022-09-09T19:44:13;100660.00;;;15.96;100.00
20043;BME280;10182;52.896;6.496;2022-09-09T19:49:15;100662.69;;;15.83;100.00
20043;BME280;10182;52.896;6.496;2022-09-09T19:54:17;100672.72;;;15.80;100.00
20043;BME280;10182;52.896;6.496;2022-09-09T19:59:20;100669.53;;;15.87;100.00
20043;BME280;10182;52.896;6.496;2022-09-09T20:04:21;100678.50;;;15.86;100.00
20043;BME280;10182;52.896;6.496;2022-09-09T20:09:23;100679.78;;;15.81;100.00
20043;BME280;10182;52.896;6.496;2022-09-09T20:14:29;100679.31;;;15.74;100.00
20043;BME280;10182;52.896;6.496;2022-09-09T20:19:31;100681.66;;;15.79;100.00
20043;BME280;10182;52.896;6.496;2022-09-09T20:24:32;100681.47;;;15.69;100.00
20043;BME280;10182;52.896;6.496;2022-09-09T20:29:37;100676.56;;;15.63;100.00
20043;BME280;10182;52.896;6.496;2022-09-09T20:34:39;100674.84;;;15.62;100.00
20043;BME280;10182;52.896;6.496;2022-09-09T20:39:41;100686.56;;;15.59;100.00
20043;BME280;10182;52.896;6.496;2022-09-09T20:44:44;100682.53;;;15.53;100.00
20043;BME280;10182;52.896;6.496;2022-09-09T20:49:46;100688.91;;;15.51;100.00
20043;BME280;10182;52.896;6.496;2022-09-09T20:54:48;100690.19;;;15.45;100.00
20043;BME280;10182;52.896;6.496;2022-09-09T20:59:52;100684.41;;;15.38;100.00
20043;BME280;10182;52.896;6.496;2022-09-09T21:04:53;100688.16;;;15.36;100.00
20043;BME280;10182;52.896;6.496;2022-09-09T21:09:55;100696.69;;;15.41;100.00
20043;BME280;10182;52.896;6.496;2022-09-09T21:14:58;100694.25;;;15.38;100.00
20043;BME280;10182;52.896;6.496;2022-09-09T21:20:00;100696.69;;;15.41;100.00
20043;BME280;10182;52.896;6.496;2022-09-09T21:25:03;100691.69;;;15.49;100.00
20043;BME280;10182;52.896;6.496;2022-09-09T21:30:08;100696.19;;;15.49;100.00
20043;BME280;10182;52.896;6.496;2022-09-09T21:35:10;100699.59;;;15.38;100.00
20043;BME280;10182;52.896;6.496;2022-09-09T21:40:12;100703.59;;;15.31;100.00
20043;BME280;10182;52.896;6.496;2022-09-09T21:45:15;100706.59;;;15.26;100.00
20043;BME280;10182;52.896;6.496;2022-09-09T21:50:18;100710.09;;;15.14;100.00
20043;BME280;10182;52.896;6.496;2022-09-09T21:55:22;100719.63;;;15.03;100.00
20043;BME280;10182;52.896;6.496;2022-09-09T22:00:25;100716.53;;;14.97;100.00
20043;BME280;10182;52.896;6.496;2022-09-09T22:05:26;100717.38;;;14.97;100.00
20043;BME280;10182;52.896;6.496;2022-09-09T22:10:28;100720.16;;;14.96;100.00
20043;BME280;10182;52.896;6.496;2022-09-09T22:15:32;100718.94;;;14.87;100.00
20043;BME280;10182;52.896;6.496;2022-09-09T22:20:40;100715.41;;;14.86;100.00
20043;BME280;10182;52.896;6.496;2022-09-09T22:25:41;100719.44;;;14.79;100.00
20043;BME280;10182;52.896;6.496;2022-09-09T22:30:45;100722.38;;;14.75;100.00
20043;BME280;10182;52.896;6.496;2022-09-09T22:35:47;100731.44;;;14.72;100.00
20043;BME280;10182;52.896;6.496;2022-09-09T22:40:48;100729.13;;;14.80;100.00
20043;BME280;10182;52.896;6.496;2022-09-09T22:45:52;100738.00;;;14.81;100.00
20043;BME280;10182;52.896;6.496;2022-09-09T22:51:00;100738.69;;;14.84;100.00
20043;BME280;10182;52.896;6.496;2022-09-09T22:56:04;100735.91;;;14.86;100.00
20043;BME280;10182;52.896;6.496;2022-09-09T23:01:10;100734.94;;;14.87;100.00
20043;BME280;10182;52.896;6.496;2022-09-09T23:06:15;100744.66;;;14.88;100.00
20043;BME280;10182;52.896;6.496;2022-09-09T23:11:22;100738.09;;;14.79;100.00
20043;BME280;10182;52.896;6.496;2022-09-09T23:16:28;100734.22;;;14.70;100.00
20043;BME280;10182;52.896;6.496;2022-09-09T23:21:31;100743.09;;;14.71;100.00
20043;BME280;10182;52.896;6.496;2022-09-09T23:26:33;100748.31;;;14.72;100.00
20043;BME280;10182;52.896;6.496;2022-09-09T23:31:36;100748.59;;;14.68;100.00
20043;BME280;10182;52.896;6.496;2022-09-09T23:36:39;100747.53;;;14.70;100.00
20043;BME280;10182;52.896;6.496;2022-09-09T23:41:41;100753.72;;;14.56;100.00
20043;BME280;10182;52.896;6.496;2022-09-09T23:46:45;100748.28;;;14.58;100.00
20043;BME280;10182;52.896;6.496;2022-09-09T23:51:47;100758.09;;;14.58;100.00
20043;BME280;10182;52.896;6.496;2022-09-09T23:56:48;100756.38;;;14.56;100.00
